SCX8127 KGPT-KHOU
Flight info
| Callsign | SCX8127 |
|---|---|
| Flight time | N/A |
| Altitude | 30000 |
| Route | HRV KCEEE BAYYY5 |
| Aircraft | B738/M-SDE2E3FGHIRWXY/LB1 |
Departure
| Time | 2026-04-18 13:01 |
|---|---|
| Airport | Gulfport Biloxi International Airport (KGPT) |
Arrival
| Time | N/A |
|---|---|
| Airport | William P. Hobby Airport (KHOU) |
| Time | Latitude | Longitude | Altitude | Speed | Heading |
|---|---|---|---|---|---|
| 2026-04-18 12:41 | 30.41201 | -89.07299 | 36 ft | 0 kts | 63° |
| 2026-04-18 12:51 | 30.41201 | -89.07300 | 36 ft | 2 kts | 63° |
| 2026-04-18 12:51 | 30.41192 | -89.07327 | 36 ft | 4 kts | 92° |
| 2026-04-18 12:52 | 30.41200 | -89.07353 | 36 ft | 4 kts | 142° |
| 2026-04-18 12:52 | 30.41213 | -89.07362 | 35 ft | 1 kts | 154° |
| 2026-04-18 12:52 | 30.41214 | -89.07362 | 35 ft | 1 kts | 154° |
| 2026-04-18 12:54 | 30.41212 | -89.07361 | 34 ft | 4 kts | 152° |
| 2026-04-18 12:55 | 30.41167 | -89.07346 | 36 ft | 8 kts | 182° |
| 2026-04-18 12:55 | 30.41112 | -89.07386 | 36 ft | 11 kts | 221° |
| 2026-04-18 12:55 | 30.41035 | -89.07399 | 34 ft | 13 kts | 146° |
| 2026-04-18 12:55 | 30.40970 | -89.07327 | 31 ft | 13 kts | 136° |
| 2026-04-18 12:56 | 30.40909 | -89.07254 | 33 ft | 12 kts | 133° |
| 2026-04-18 12:56 | 30.40850 | -89.07183 | 33 ft | 12 kts | 136° |
| 2026-04-18 12:56 | 30.40789 | -89.07118 | 35 ft | 12 kts | 138° |
| 2026-04-18 12:56 | 30.40723 | -89.07047 | 36 ft | 16 kts | 134° |
| 2026-04-18 12:57 | 30.40639 | -89.06947 | 38 ft | 19 kts | 135° |
| 2026-04-18 12:57 | 30.40534 | -89.06827 | 35 ft | 22 kts | 135° |
| 2026-04-18 12:57 | 30.40426 | -89.06700 | 37 ft | 22 kts | 134° |
| 2026-04-18 12:57 | 30.40314 | -89.06585 | 34 ft | 21 kts | 141° |
| 2026-04-18 12:58 | 30.40200 | -89.06481 | 34 ft | 21 kts | 141° |
| 2026-04-18 12:58 | 30.40094 | -89.06364 | 32 ft | 21 kts | 134° |
| 2026-04-18 12:58 | 30.39994 | -89.06243 | 35 ft | 20 kts | 134° |
| 2026-04-18 12:58 | 30.39906 | -89.06144 | 35 ft | 11 kts | 142° |
| 2026-04-18 12:59 | 30.39881 | -89.06131 | 35 ft | 3 kts | 166° |
| 2026-04-18 12:59 | 30.39856 | -89.06134 | 36 ft | 6 kts | 198° |
| 2026-04-18 12:59 | 30.39817 | -89.06168 | 37 ft | 7 kts | 225° |
| 2026-04-18 12:59 | 30.39786 | -89.06212 | 38 ft | 7 kts | 239° |
| 2026-04-18 13:00 | 30.39797 | -89.06263 | 36 ft | 7 kts | 308° |
| 2026-04-18 13:00 | 30.39821 | -89.06293 | 37 ft | 6 kts | 313° |
| 2026-04-18 13:00 | 30.39909 | -89.06397 | 35 ft | 57 kts | 315° |
| 2026-04-18 13:00 | 30.40638 | -89.07239 | 46 ft | 160 kts | 315° |
| 2026-04-18 13:01 | 30.41488 | -89.08177 | 806 ft | 169 kts | 317° |
| 2026-04-18 13:01 | 30.42034 | -89.08804 | 1535 ft | 167 kts | 307° |
| 2026-04-18 13:01 | 30.42341 | -89.10125 | 2228 ft | 187 kts | 260° |
| 2026-04-18 13:01 | 30.41650 | -89.11500 | 2534 ft | 215 kts | 223° |
| 2026-04-18 13:02 | 30.40477 | -89.12691 | 2953 ft | 230 kts | 222° |
| 2026-04-18 13:02 | 30.39294 | -89.13977 | 3602 ft | 237 kts | 224° |
| 2026-04-18 13:02 | 30.38090 | -89.15401 | 4065 ft | 254 kts | 227° |
| 2026-04-18 13:02 | 30.36888 | -89.16944 | 4859 ft | 261 kts | 229° |
| 2026-04-18 13:03 | 30.35708 | -89.18556 | 5845 ft | 262 kts | 230° |
| 2026-04-18 13:03 | 30.33418 | -89.21910 | 7662 ft | 269 kts | 232° |
| 2026-04-18 13:03 | 30.32278 | -89.23659 | 8538 ft | 273 kts | 233° |
| 2026-04-18 13:04 | 30.31142 | -89.25437 | 9400 ft | 276 kts | 233° |
| 2026-04-18 13:04 | 30.30017 | -89.27223 | 10230 ft | 280 kts | 234° |
| 2026-04-18 13:04 | 30.28821 | -89.29140 | 10619 ft | 303 kts | 234° |
| 2026-04-18 13:04 | 30.27539 | -89.31210 | 10832 ft | 329 kts | 234° |
| 2026-04-18 13:05 | 30.26167 | -89.33436 | 11182 ft | 347 kts | 234° |
| 2026-04-18 13:05 | 30.24753 | -89.35737 | 11870 ft | 353 kts | 234° |
| 2026-04-18 13:05 | 30.23341 | -89.38040 | 12651 ft | 356 kts | 234° |
| 2026-04-18 13:05 | 30.21903 | -89.40389 | 13414 ft | 360 kts | 234° |
| 2026-04-18 13:06 | 30.20450 | -89.42762 | 14136 ft | 364 kts | 234° |
| 2026-04-18 13:06 | 30.18980 | -89.45163 | 14841 ft | 368 kts | 234° |
| 2026-04-18 13:06 | 30.17493 | -89.47591 | 15533 ft | 371 kts | 234° |
| 2026-04-18 13:06 | 30.15990 | -89.50043 | 16184 ft | 376 kts | 234° |
| 2026-04-18 13:07 | 30.14474 | -89.52516 | 16837 ft | 380 kts | 234° |
| 2026-04-18 13:07 | 30.12938 | -89.55020 | 17513 ft | 383 kts | 234° |
| 2026-04-18 13:07 | 30.11392 | -89.57538 | 18136 ft | 386 kts | 234° |
| 2026-04-18 13:07 | 30.09830 | -89.60081 | 18751 ft | 389 kts | 234° |
| 2026-04-18 13:08 | 30.08254 | -89.62646 | 19329 ft | 393 kts | 234° |
| 2026-04-18 13:08 | 30.06665 | -89.65229 | 19918 ft | 396 kts | 234° |
| 2026-04-18 13:08 | 30.05061 | -89.67835 | 20479 ft | 400 kts | 234° |
| 2026-04-18 13:08 | 30.03443 | -89.70463 | 21031 ft | 403 kts | 234° |
| 2026-04-18 13:09 | 30.01830 | -89.73080 | 21554 ft | 406 kts | 234° |
| 2026-04-18 13:09 | 30.00186 | -89.75748 | 22071 ft | 409 kts | 234° |
| 2026-04-18 13:09 | 29.98529 | -89.78433 | 22554 ft | 413 kts | 234° |
| 2026-04-18 13:09 | 29.96858 | -89.81140 | 23006 ft | 416 kts | 234° |
| 2026-04-18 13:10 | 29.95170 | -89.83871 | 23479 ft | 419 kts | 234° |
| 2026-04-18 13:10 | 29.93475 | -89.86614 | 23931 ft | 422 kts | 234° |
| 2026-04-18 13:10 | 29.91767 | -89.89376 | 24375 ft | 424 kts | 234° |
| 2026-04-18 13:10 | 29.90047 | -89.92155 | 24804 ft | 427 kts | 234° |
| 2026-04-18 13:11 | 29.88318 | -89.94948 | 25220 ft | 429 kts | 234° |
| 2026-04-18 13:11 | 29.86579 | -89.97759 | 25615 ft | 432 kts | 236° |
| 2026-04-18 13:11 | 29.85059 | -90.00764 | 25982 ft | 435 kts | 245° |
| 2026-04-18 13:11 | 29.83997 | -90.04027 | 26350 ft | 437 kts | 254° |
| 2026-04-18 13:12 | 29.83197 | -90.07422 | 26730 ft | 439 kts | 255° |
| 2026-04-18 13:12 | 29.82418 | -90.10839 | 27082 ft | 442 kts | 255° |
| 2026-04-18 13:12 | 29.81639 | -90.14270 | 27421 ft | 444 kts | 255° |
| 2026-04-18 13:12 | 29.80848 | -90.17716 | 27750 ft | 446 kts | 255° |
| 2026-04-18 13:13 | 29.80044 | -90.21178 | 28072 ft | 448 kts | 255° |